createdAt,value
2019-04-25T00:02:13.448Z,20.82
2019-04-25T00:04:44.690Z,20.75
2019-04-25T00:07:15.194Z,20.72
2019-04-25T00:09:51.931Z,21.10
2019-04-25T00:12:23.199Z,21.77
2019-04-25T00:14:55.481Z,22.02
2019-04-25T00:17:26.847Z,21.93
2019-04-25T00:19:57.315Z,21.37
2019-04-25T00:22:53.243Z,21.95
2019-04-25T00:25:48.034Z,21.60
2019-04-25T00:28:18.413Z,21.30
2019-04-25T00:30:49.266Z,22.55
2019-04-25T00:33:21.484Z,21.45
2019-04-25T00:35:52.772Z,21.12
2019-04-25T00:38:23.350Z,21.35
2019-04-25T00:40:54.160Z,21.42
2019-04-25T00:43:24.737Z,21.97
2019-04-25T00:45:56.287Z,22.35
2019-04-25T00:48:26.990Z,22.45
2019-04-25T00:50:57.575Z,21.33
2019-04-25T00:53:28.203Z,21.77
2019-04-25T00:55:59.180Z,21.33
2019-04-25T00:58:50.879Z,20.80
2019-04-25T01:01:31.998Z,21.33
2019-04-25T01:04:02.578Z,21.87
2019-04-25T01:06:33.323Z,23.18
2019-04-25T01:09:05.617Z,22.25
2019-04-25T01:11:36.443Z,22.42
2019-04-25T01:14:07.094Z,22.93
2019-04-25T01:16:37.590Z,22.10
2019-04-25T01:19:08.231Z,22.60
2019-04-25T01:21:39.024Z,23.55
2019-04-25T01:24:10.551Z,22.98
2019-04-25T01:26:41.317Z,20.97
2019-04-25T01:29:13.486Z,21.75
2019-04-25T01:31:44.201Z,21.45
2019-04-25T01:34:16.477Z,21.37
2019-04-25T01:36:58.230Z,22.07
2019-04-25T01:39:55.313Z,22.52
2019-04-25T01:42:51.585Z,22.13
2019-04-25T01:45:25.285Z,20.70
2019-04-25T01:47:56.297Z,22.67
2019-04-25T01:50:26.918Z,22.55
2019-04-25T01:52:57.480Z,22.58
2019-04-25T01:55:29.071Z,23.32
2019-04-25T01:57:59.830Z,22.82
2019-04-25T02:00:51.361Z,22.02
2019-04-25T02:03:25.427Z,23.20
2019-04-25T02:05:55.216Z,23.27
2019-04-25T02:08:26.842Z,23.47
2019-04-25T02:11:17.839Z,22.52
2019-04-25T02:13:48.534Z,22.87
2019-04-25T02:16:20.396Z,22.73
2019-04-25T02:18:51.931Z,22.82
2019-04-25T02:21:23.629Z,22.62
2019-04-25T02:23:55.490Z,21.50
2019-04-25T02:26:26.855Z,21.50
2019-04-25T02:28:58.375Z,21.30
2019-04-25T02:31:30.431Z,21.57
2019-04-25T02:34:03.464Z,23.07
2019-04-25T02:36:34.792Z,22.60
2019-04-25T02:39:11.626Z,23.95
2019-04-25T02:41:44.375Z,25.48
2019-04-25T02:44:16.219Z,26.30
2019-04-25T02:47:25.186Z,26.62
2019-04-25T02:50:15.069Z,26.05
2019-04-25T02:53:01.340Z,27.25
2019-04-25T02:55:36.927Z,26.93
2019-04-25T02:58:05.652Z,26.05
2019-04-25T03:00:51.713Z,26.73
2019-04-25T03:03:09.515Z,25.90
2019-04-25T03:05:40.570Z,27.15
2019-04-25T03:08:11.371Z,26.45
2019-04-25T03:10:44.336Z,25.95
2019-04-25T03:13:15.042Z,24.60
2019-04-25T03:15:45.682Z,25.27
2019-04-25T03:18:18.068Z,25.92
2019-04-25T03:21:05.415Z,26.97
2019-04-25T03:23:45.483Z,27.07
2019-04-25T03:26:15.232Z,26.57
2019-04-25T03:28:45.766Z,26.57
2019-04-25T03:31:22.730Z,27.98
2019-04-25T03:33:48.916Z,26.70
2019-04-25T03:36:20.455Z,26.80
2019-04-25T03:38:51.253Z,25.05
2019-04-25T03:41:21.792Z,24.37
2019-04-25T03:43:54.028Z,23.60
2019-04-25T03:46:25.011Z,23.40
2019-04-25T03:48:55.718Z,24.27
2019-04-25T03:51:26.546Z,21.57
2019-04-25T03:53:57.161Z,20.15
2019-04-25T03:56:27.700Z,19.25
2019-04-25T03:59:00.074Z,18.32
2019-04-25T04:01:31.406Z,19.20
2019-04-25T04:04:04.326Z,17.48
2019-04-25T04:06:34.426Z,17.00
2019-04-25T04:09:06.749Z,17.50
2019-04-25T04:11:38.173Z,15.88
2019-04-25T04:14:10.525Z,16.90
2019-04-25T04:17:00.271Z,15.80
2019-04-25T04:19:34.921Z,14.15
2019-04-25T04:22:18.624Z,14.13
2019-04-25T04:24:53.791Z,12.43
2019-04-25T04:27:24.767Z,11.63
2019-04-25T04:29:55.444Z,12.07
2019-04-25T04:32:26.506Z,12.28
2019-04-25T04:34:57.551Z,11.40
2019-04-25T04:37:28.700Z,12.15
2019-04-25T04:39:59.443Z,10.88
2019-04-25T04:42:30.162Z,10.65
2019-04-25T04:45:01.165Z,9.30
2019-04-25T04:47:33.237Z,10.32
2019-04-25T04:50:06.799Z,9.98
2019-04-25T04:52:37.487Z,10.58
2019-04-25T04:55:11.209Z,10.35
2019-04-25T04:57:40.985Z,12.07
2019-04-25T05:00:14.147Z,11.50
2019-04-25T05:03:21.045Z,11.43
2019-04-25T05:06:06.188Z,10.70
2019-04-25T05:08:45.932Z,10.30
2019-04-25T05:11:18.245Z,10.85
2019-04-25T05:13:48.858Z,10.40
2019-04-25T05:16:19.830Z,9.75
2019-04-25T05:18:53.617Z,10.03
2019-04-25T05:21:25.117Z,8.33
2019-04-25T05:23:56.920Z,7.50
2019-04-25T05:26:27.945Z,7.50
2019-04-25T05:28:58.808Z,7.42
2019-04-25T05:31:50.326Z,6.87
2019-04-25T05:34:21.713Z,6.95
2019-04-25T05:36:53.893Z,7.83
2019-04-25T05:39:25.130Z,6.80
2019-04-25T05:42:22.571Z,7.17
2019-04-25T05:44:56.089Z,6.83
2019-04-25T05:47:27.207Z,8.00
2019-04-25T05:49:57.907Z,7.75
2019-04-25T05:52:28.913Z,8.00
2019-04-25T05:54:59.776Z,7.90
2019-04-25T05:57:43.125Z,7.90
2019-04-25T06:00:03.689Z,7.55
2019-04-25T06:02:35.312Z,7.97
2019-04-25T06:05:06.233Z,8.10
2019-04-25T06:07:36.994Z,8.88
2019-04-25T06:10:15.851Z,8.33
2019-04-25T06:13:13.797Z,7.30
2019-04-25T06:15:47.343Z,6.58
2019-04-25T06:18:25.987Z,6.30
2019-04-25T06:20:57.919Z,10.75
2019-04-25T06:23:51.910Z,3.92
2019-04-25T06:26:33.416Z,3.20
2019-04-25T06:28:59.563Z,3.50
2019-04-25T06:31:29.200Z,3.60
2019-04-25T06:34:00.057Z,3.40
2019-04-25T06:36:30.975Z,2.75
2019-04-25T06:39:04.097Z,2.70
2019-04-25T06:41:36.439Z,3.05
2019-04-25T06:44:08.736Z,2.20
2019-04-25T06:47:03.411Z,2.15
2019-04-25T06:49:37.482Z,2.00
2019-04-25T06:52:08.285Z,1.95
2019-04-25T06:54:39.055Z,2.08
2019-04-25T06:57:09.685Z,2.08
2019-04-25T06:59:41.540Z,2.45
2019-04-25T07:02:13.965Z,1.60
2019-04-25T07:04:45.741Z,1.50
2019-04-25T07:07:16.498Z,1.87
2019-04-25T07:09:47.511Z,2.02
2019-04-25T07:12:18.220Z,2.20
2019-04-25T07:14:48.995Z,1.98
2019-04-25T07:17:19.758Z,1.90
2019-04-25T07:19:50.459Z,2.30
2019-04-25T07:22:21.373Z,2.83
2019-04-25T07:24:53.691Z,3.02
2019-04-25T07:27:35.677Z,2.72
2019-04-25T07:30:45.458Z,2.85
2019-04-25T07:33:11.384Z,2.60
2019-04-25T07:35:43.444Z,1.60
2019-04-25T07:38:15.203Z,1.20
2019-04-25T07:40:45.979Z,2.40
2019-04-25T07:43:16.825Z,1.85
2019-04-25T07:45:47.661Z,1.80
2019-04-25T07:48:18.492Z,2.05
2019-04-25T07:50:49.377Z,2.35
2019-04-25T07:53:20.255Z,1.80
2019-04-25T07:55:54.191Z,1.98
2019-04-25T07:58:52.216Z,1.80
2019-04-25T08:01:21.567Z,1.35
2019-04-25T08:03:53.751Z,1.10
2019-04-25T08:06:25.519Z,1.17
2019-04-25T08:09:31.498Z,1.52
2019-04-25T08:12:10.901Z,0.80
2019-04-25T08:15:01.145Z,1.20
2019-04-25T08:17:49.665Z,1.15
2019-04-25T08:20:30.552Z,0.80
2019-04-25T08:23:04.264Z,0.70
2019-04-25T08:25:39.270Z,0.62
2019-04-25T08:28:09.547Z,0.65
2019-04-25T08:30:40.419Z,0.70
2019-04-25T08:33:11.631Z,0.57
2019-04-25T08:36:02.997Z,1.02
2019-04-25T08:38:17.361Z,0.88
2019-04-25T08:40:50.057Z,0.72
2019-04-25T08:43:21.115Z,0.60
2019-04-25T08:45:54.256Z,0.70
2019-04-25T08:48:27.691Z,0.62
2019-04-25T08:51:04.884Z,0.60
2019-04-25T08:53:44.966Z,0.78
2019-04-25T08:56:22.204Z,0.72
2019-04-25T08:59:05.421Z,0.80
2019-04-25T09:01:47.306Z,0.70
2019-04-25T09:04:44.807Z,0.60
2019-04-25T09:07:15.658Z,0.80
2019-04-25T09:09:47.265Z,0.80
2019-04-25T09:12:18.687Z,0.65
2019-04-25T09:14:51.729Z,0.90
2019-04-25T09:17:24.842Z,0.70
2019-04-25T09:19:58.285Z,0.82
2019-04-25T09:22:35.233Z,0.80
2019-04-25T09:25:08.652Z,0.95
2019-04-25T09:27:43.812Z,0.90
2019-04-25T09:30:17.861Z,0.65
2019-04-25T09:32:59.301Z,0.80
2019-04-25T09:35:30.883Z,0.85
2019-04-25T09:38:03.464Z,1.20
2019-04-25T09:40:35.978Z,0.80
2019-04-25T09:43:06.812Z,0.70
2019-04-25T09:46:13.322Z,0.60
2019-04-25T09:49:46.063Z,0.95
2019-04-25T09:52:21.512Z,0.80
2019-04-25T09:55:37.518Z,0.78
2019-04-25T09:58:15.237Z,0.70
2019-04-25T10:00:51.827Z,0.70
2019-04-25T10:03:23.384Z,1.57
2019-04-25T10:05:58.027Z,0.60
2019-04-25T10:08:39.054Z,0.80
2019-04-25T10:11:11.310Z,0.72
2019-04-25T10:13:44.820Z,0.70
2019-04-25T10:16:15.594Z,0.72
2019-04-25T10:18:46.573Z,1.15
2019-04-25T10:21:24.060Z,0.65
2019-04-25T10:23:55.404Z,0.80
2019-04-25T10:26:26.999Z,0.70
2019-04-25T10:28:57.472Z,0.90
2019-04-25T10:31:28.926Z,0.70
2019-04-25T10:33:59.874Z,1.00
2019-04-25T10:36:33.513Z,1.02
2019-04-25T10:39:11.192Z,2.87
2019-04-25T10:41:41.489Z,4.45
2019-04-25T10:44:14.017Z,3.27
2019-04-25T10:46:46.903Z,0.80
2019-04-25T10:49:17.261Z,4.83
2019-04-25T10:51:48.791Z,1.98
2019-04-25T10:54:20.819Z,0.90
2019-04-25T10:56:52.076Z,1.62
2019-04-25T10:59:24.366Z,1.75
2019-04-25T11:01:55.198Z,2.00
2019-04-25T11:04:40.676Z,1.12
2019-04-25T11:07:13.678Z,1.80
2019-04-25T11:09:51.724Z,1.20
2019-04-25T11:12:23.479Z,15.40
2019-04-25T11:14:56.107Z,1.47
2019-04-25T11:17:27.327Z,1.47
2019-04-25T11:19:58.524Z,2.72
2019-04-25T11:22:29.506Z,1.40
2019-04-25T11:25:00.244Z,1.98
2019-04-25T11:27:33.975Z,1.10
2019-04-25T11:30:10.805Z,0.80
2019-04-25T11:32:39.271Z,9.48
2019-04-25T11:35:11.476Z,0.80
2019-04-25T11:37:43.181Z,1.20
2019-04-25T11:40:23.514Z,0.70
2019-04-25T11:42:54.703Z,0.80
2019-04-25T11:45:26.289Z,6.37
2019-04-25T11:47:57.527Z,1.98
2019-04-25T11:50:28.370Z,1.10
2019-04-25T11:52:59.199Z,0.82
2019-04-25T11:55:29.902Z,0.80
2019-04-25T11:58:01.104Z,1.02
2019-04-25T12:00:33.792Z,1.05
2019-04-25T12:03:05.654Z,1.57
2019-04-25T12:05:36.375Z,0.93
2019-04-25T12:08:09.422Z,0.70
2019-04-25T12:10:40.410Z,1.20
2019-04-25T12:13:11.056Z,1.00
2019-04-25T12:15:41.709Z,0.65
2019-04-25T12:18:13.802Z,0.80
2019-04-25T12:20:46.256Z,0.88
2019-04-25T12:23:17.491Z,0.65
2019-04-25T12:25:49.900Z,0.88
2019-04-25T12:28:23.511Z,0.70
2019-04-25T12:30:56.456Z,1.00
2019-04-25T12:33:27.283Z,2.98
2019-04-25T12:35:58.199Z,0.60
2019-04-25T12:38:29.384Z,1.67
2019-04-25T12:41:00.378Z,1.82
2019-04-25T12:43:33.920Z,1.37
2019-04-25T12:46:13.331Z,0.80
2019-04-25T12:48:46.059Z,0.85
2019-04-25T12:51:17.730Z,0.72
2019-04-25T12:53:48.688Z,0.60
2019-04-25T12:56:20.432Z,0.80
2019-04-25T12:58:55.107Z,0.70
2019-04-25T13:01:31.252Z,0.72
2019-04-25T13:04:07.201Z,0.72
2019-04-25T13:06:39.262Z,0.80
2019-04-25T13:09:11.747Z,0.70
2019-04-25T13:11:43.450Z,0.70
2019-04-25T13:14:15.819Z,0.70
2019-04-25T13:17:10.414Z,0.80
2019-04-25T13:19:44.489Z,0.80
2019-04-25T13:23:08.743Z,0.70
2019-04-25T13:25:39.666Z,1.07
2019-04-25T13:28:33.785Z,0.98
2019-04-25T13:31:33.728Z,0.80
2019-04-25T13:34:11.784Z,0.80
2019-04-25T13:36:44.192Z,1.05
2019-04-25T13:39:18.877Z,0.72
2019-04-25T13:41:54.392Z,0.60
2019-04-25T13:44:28.502Z,0.80
2019-04-25T13:46:59.509Z,0.80
2019-04-25T13:49:52.078Z,0.53
2019-04-25T13:52:50.363Z,0.50
2019-04-25T13:55:24.928Z,0.90
2019-04-25T13:57:56.788Z,0.93
2019-04-25T14:01:18.854Z,0.60
2019-04-25T14:03:50.632Z,0.60
2019-04-25T14:06:21.494Z,1.00
2019-04-25T14:08:53.416Z,0.70
2019-04-25T14:11:25.958Z,0.70
2019-04-25T14:13:56.538Z,0.72
2019-04-25T14:16:34.904Z,0.70
2019-04-25T14:19:25.194Z,0.60
2019-04-25T14:21:58.726Z,0.90
2019-04-25T14:24:30.749Z,0.68
2019-04-25T14:27:01.574Z,0.62
2019-04-25T14:29:32.401Z,0.62
2019-04-25T14:32:04.840Z,0.50
2019-04-25T14:34:37.060Z,0.60
2019-04-25T14:37:10.087Z,0.80
2019-04-25T14:40:21.587Z,0.80
2019-04-25T14:51:10.735Z,0.98
2019-04-25T14:53:46.473Z,0.70
2019-04-25T14:56:41.818Z,0.60
2019-04-25T14:59:15.375Z,0.60
2019-04-25T15:01:46.139Z,0.50
2019-04-25T15:04:16.691Z,0.60
2019-04-25T15:06:47.552Z,0.53
2019-04-25T15:09:19.956Z,0.70
2019-04-25T15:11:50.967Z,0.60
2019-04-25T15:14:34.207Z,0.68
2019-04-25T19:13:31.783Z,2.17
2019-04-25T19:16:03.277Z,1.98
2019-04-25T19:18:52.042Z,1.50
2019-04-25T19:21:30.007Z,1.80
2019-04-25T19:24:01.039Z,2.02
2019-04-25T19:26:35.550Z,1.50
2019-04-25T19:29:12.796Z,1.52
2019-04-25T19:31:44.297Z,2.10
2019-04-25T19:34:15.573Z,1.77
2019-04-25T19:36:54.543Z,1.55
2019-04-25T19:39:27.411Z,1.30
2019-04-25T19:42:23.213Z,1.10
2019-04-25T19:44:57.127Z,1.10
2019-04-25T19:47:30.208Z,0.88
2019-04-25T19:50:02.461Z,1.42
2019-04-25T19:52:36.995Z,1.60
2019-04-25T19:55:08.432Z,1.60
2019-04-25T19:57:42.527Z,1.20
2019-04-25T20:00:13.806Z,2.05
2019-04-25T20:03:04.825Z,1.65
2019-04-25T20:05:51.168Z,1.25
2019-04-25T20:08:35.153Z,1.20
2019-04-25T20:11:14.848Z,1.12
2019-04-25T20:13:47.066Z,1.10
2019-04-25T20:16:20.273Z,1.10
2019-04-25T20:18:51.835Z,1.15
2019-04-25T20:21:30.160Z,1.27
2019-04-25T20:24:01.669Z,1.10
2019-04-25T20:26:36.952Z,1.40
2019-04-25T20:29:11.417Z,1.50
2019-04-25T20:31:42.818Z,1.20
2019-04-25T20:34:16.530Z,1.30
2019-04-25T20:36:53.688Z,1.25
2019-04-25T20:39:27.654Z,1.27
2019-04-25T20:41:58.134Z,1.20
2019-04-25T20:44:29.128Z,1.17
2019-04-25T20:47:00.189Z,1.10
2019-04-25T20:49:31.131Z,0.90
2019-04-25T20:52:03.911Z,0.80
2019-04-25T20:54:35.156Z,0.90
2019-04-25T20:57:06.355Z,0.90
2019-04-25T20:59:39.097Z,1.00
2019-04-25T21:02:10.671Z,1.02
2019-04-25T21:04:44.405Z,1.00
2019-04-25T21:07:17.041Z,0.93
2019-04-25T21:09:53.202Z,1.20
2019-04-25T21:12:24.717Z,1.00
2019-04-25T21:15:26.472Z,1.27
2019-04-25T21:18:13.777Z,0.85
2019-04-25T21:20:46.094Z,1.00
2019-04-25T21:23:17.955Z,1.00
2019-04-25T21:25:51.576Z,1.17
2019-04-25T21:28:23.110Z,1.52
2019-04-25T21:30:54.772Z,1.10
2019-04-25T21:33:26.021Z,1.05
2019-04-25T21:36:00.108Z,1.20
2019-04-25T21:38:39.707Z,0.95
2019-04-25T21:41:29.625Z,1.15
2019-04-25T21:44:03.352Z,1.15
2019-04-25T21:46:34.114Z,1.00
2019-04-25T21:49:05.277Z,1.20
2019-04-25T21:51:35.967Z,1.00
2019-04-25T21:54:06.923Z,1.25
2019-04-25T21:56:39.933Z,1.20
2019-04-25T21:59:14.658Z,1.17
2019-04-25T22:01:48.189Z,1.57
2019-04-25T22:04:23.706Z,1.32
2019-04-25T22:06:57.042Z,1.30
2019-04-25T22:09:28.718Z,1.20
2019-04-25T22:12:00.997Z,1.60
2019-04-25T22:14:32.220Z,1.30
2019-04-25T22:17:09.381Z,1.50
2019-04-25T22:19:47.413Z,1.45
2019-04-25T22:22:22.205Z,1.75
2019-04-25T22:24:54.692Z,1.62
2019-04-25T22:27:31.272Z,1.52
2019-04-25T22:30:04.492Z,1.60
2019-04-25T22:32:43.001Z,1.67
2019-04-25T22:35:21.720Z,1.95
2019-04-25T22:37:52.315Z,1.87
2019-04-25T22:40:23.271Z,1.77
2019-04-25T22:42:55.771Z,1.70
2019-04-25T22:45:26.438Z,1.80
2019-04-25T22:47:57.053Z,1.90
2019-04-25T22:50:27.745Z,1.98
2019-04-25T22:52:59.602Z,1.92
2019-04-25T22:55:30.527Z,2.00
2019-04-25T22:58:02.247Z,2.00
2019-04-25T23:00:36.346Z,2.60
2019-04-25T23:03:12.623Z,3.20
2019-04-25T23:05:50.594Z,2.42
2019-04-25T23:08:21.819Z,2.40
2019-04-25T23:10:52.981Z,2.10
2019-04-25T23:13:24.189Z,2.00
2019-04-25T23:15:58.767Z,2.60
2019-04-25T23:18:32.628Z,1.90
2019-04-25T23:21:04.001Z,2.08
2019-04-25T23:23:36.307Z,1.92
2019-04-25T23:26:20.035Z,2.40
2019-04-25T23:28:51.751Z,2.22
2019-04-25T23:31:26.566Z,2.05
2019-04-25T23:34:00.896Z,2.70
2019-04-25T23:36:32.251Z,2.52
2019-04-25T23:39:04.783Z,2.75
2019-04-25T23:41:39.464Z,3.05
2019-04-25T23:44:14.054Z,2.90
2019-04-25T23:46:47.996Z,3.22
2019-04-25T23:49:19.307Z,3.25
2019-04-25T23:51:51.064Z,3.22
2019-04-25T23:54:22.128Z,3.67
2019-04-25T23:56:53.596Z,3.10
2019-04-25T23:59:24.819Z,3.47
